Wetterdaten: Woche 28.06.10 - 04.07.10 (KW26)
Datum Zeit Temperatur Luftfeuchte Luftdruck Niederschlag Wind Richtung Sonnenschein Solar Taupunkt Windchill Windben
28.06.2010 00:00 18.7 C 77 % 1016.1 hPa 0.0 l/m 2.2 km/h (1 Bft) O-SO 0.00 h 0 W/m 14.6 C 18.7 C 3.6 km/h (1 Bft)
28.06.2010 01:00 17.7 C 81 % 1016.3 hPa 0.0 l/m 2.3 km/h (1 Bft) O 0.00 h 0 W/m 14.4 C 17.7 C 3.6 km/h (1 Bft)
28.06.2010 02:00 17.2 C 83 % 1016.2 hPa 0.0 l/m 1.4 km/h (1 Bft) O 0.00 h 0 W/m 14.2 C 17.2 C 2.8 km/h (1 Bft)
28.06.2010 03:00 16.3 C 85 % 1016.1 hPa 0.0 l/m 1.1 km/h (0 Bft) O 0.00 h 0 W/m 13.8 C 16.3 C 2.3 km/h (1 Bft)
28.06.2010 04:00 15.5 C 88 % 1016.2 hPa 0.0 l/m 0.6 km/h (0 Bft) O 0.00 h 0 W/m 13.5 C 15.5 C 1.2 km/h (1 Bft)
28.06.2010 05:00 15.1 C 89 % 1016.6 hPa 0.0 l/m 0.3 km/h (0 Bft) O 0.05 h 10 W/m 13.3 C 15.1 C 0.7 km/h (0 Bft)
28.06.2010 06:00 15.1 C 90 % 1017.1 hPa 0.0 l/m 0.4 km/h (0 Bft) O 0.00 h 40 W/m 13.5 C 15.1 C 0.9 km/h (0 Bft)
28.06.2010 07:00 16.8 C 86 % 1017.2 hPa 0.0 l/m 0.2 km/h (0 Bft) O 0.87 h 176 W/m 14.5 C 16.8 C 0.7 km/h (0 Bft)
28.06.2010 08:00 19.2 C 79 % 1017.4 hPa 0.0 l/m 0.6 km/h (0 Bft) NO 1.00 h 326 W/m 15.4 C 19.2 C 1.9 km/h (1 Bft)
28.06.2010 09:00 21.8 C 72 % 1017.4 hPa 0.0 l/m 1.4 km/h (1 Bft) N-NW 1.00 h 491 W/m 16.6 C 21.8 C 3.0 km/h (1 Bft)
28.06.2010 10:00 24.2 C 64 % 1017.2 hPa 0.0 l/m 1.7 km/h (1 Bft) N-NW 1.00 h 627 W/m 16.9 C 24.2 C 3.5 km/h (1 Bft)
28.06.2010 11:00 26.2 C 55 % 1017.1 hPa 0.0 l/m 1.8 km/h (1 Bft) W-NW 1.00 h 747 W/m 16.3 C 26.2 C 4.1 km/h (1 Bft)
28.06.2010 12:00 27.8 C 46 % 1016.7 hPa 0.0 l/m 2.7 km/h (1 Bft) O-SO 1.00 h 826 W/m 15.2 C 27.8 C 5.4 km/h (1 Bft)
28.06.2010 13:00 28.6 C 41 % 1016.5 hPa 0.0 l/m 2.6 km/h (1 Bft) O-SO 1.00 h 842 W/m 14.2 C 28.6 C 5.3 km/h (1 Bft)
28.06.2010 14:00 29.0 C 41 % 1016.1 hPa 0.0 l/m 3.4 km/h (1 Bft) O-SO 1.00 h 818 W/m 14.4 C 29.0 C 6.4 km/h (2 Bft)
28.06.2010 15:00 29.3 C 42 % 1016.0 hPa 0.0 l/m 2.9 km/h (1 Bft) O-SO 1.00 h 751 W/m 15.0 C 29.3 C 5.8 km/h (2 Bft)
28.06.2010 16:00 29.4 C 41 % 1015.8 hPa 0.0 l/m 2.2 km/h (1 Bft) O-SO 1.00 h 626 W/m 14.8 C 29.4 C 4.3 km/h (1 Bft)
28.06.2010 17:00 28.7 C 43 % 1015.6 hPa 0.0 l/m 1.4 km/h (1 Bft) O-SO 0.18 h 252 W/m 15.0 C 28.7 C 3.1 km/h (1 Bft)
28.06.2010 18:00 28.8 C 48 % 1015.3 hPa 0.0 l/m 1.5 km/h (1 Bft) N-NW 0.72 h 307 W/m 16.5 C 28.8 C 3.6 km/h (1 Bft)
28.06.2010 19:00 27.4 C 51 % 1015.1 hPa 0.0 l/m 1.5 km/h (1 Bft) O-NO 0.12 h 128 W/m 16.4 C 27.4 C 3.1 km/h (1 Bft)
28.06.2010 20:00 25.7 C 58 % 1015.3 hPa 0.0 l/m 1.4 km/h (1 Bft) O-SO 0.00 h 60 W/m 16.8 C 25.7 C 3.0 km/h (1 Bft)
28.06.2010 21:00 23.8 C 66 % 1015.6 hPa 0.0 l/m 1.2 km/h (1 Bft) O-SO 0.02 h 11 W/m 17.0 C 23.8 C 2.1 km/h (1 Bft)
28.06.2010 22:00 21.9 C 73 % 1016.2 hPa 0.0 l/m 1.2 km/h (1 Bft) O-SO 0.00 h 0 W/m 16.9 C 21.9 C 2.3 km/h (1 Bft)
28.06.2010 23:00 20.6 C 78 % 1016.3 hPa 0.0 l/m 2.5 km/h (1 Bft) O-SO 0.00 h 0 W/m 16.6 C 20.6 C 3.8 km/h (1 Bft)
29.06.2010 00:00 19.9 C 79 % 1016.4 hPa 0.0 l/m 2.7 km/h (1 Bft) O-SO 0.00 h 0 W/m 16.2 C 19.9 C 4.3 km/h (1 Bft)
29.06.2010 01:00 19.1 C 83 % 1016.4 hPa 0.0 l/m 1.8 km/h (1 Bft) O 0.00 h 0 W/m 16.0 C 19.1 C 3.2 km/h (1 Bft)
29.06.2010 02:00 18.1 C 87 % 1016.4 hPa 0.0 l/m 0.8 km/h (0 Bft) O 0.00 h 0 W/m 15.8 C 18.1 C 1.7 km/h (1 Bft)
29.06.2010 03:00 17.8 C 87 % 1016.3 hPa 0.0 l/m 2.2 km/h (1 Bft) O 0.00 h 0 W/m 15.7 C 17.8 C 3.7 km/h (1 Bft)
29.06.2010 04:00 17.2 C 90 % 1016.5 hPa 0.0 l/m 0.8 km/h (0 Bft) O-SO 0.00 h 0 W/m 15.5 C 17.2 C 1.8 km/h (1 Bft)
29.06.2010 05:00 16.6 C 91 % 1016.7 hPa 0.0 l/m 0.3 km/h (0 Bft) O-SO 0.00 h 10 W/m 15.0 C 16.6 C 0.7 km/h (0 Bft)
29.06.2010 06:00 16.7 C 91 % 1016.8 hPa 0.0 l/m 0.4 km/h (0 Bft) O-SO 0.10 h 48 W/m 15.3 C 16.7 C 1.2 km/h (1 Bft)
29.06.2010 07:00 18.2 C 89 % 1017.1 hPa 0.0 l/m 0.0 km/h (0 Bft) O-SO 0.62 h 149 W/m 16.3 C 18.2 C 0.4 km/h (0 Bft)
29.06.2010 08:00 20.0 C 84 % 1017.2 hPa 0.0 l/m 0.1 km/h (0 Bft) O-SO 0.88 h 292 W/m 17.1 C 20.0 C 1.0 km/h (0 Bft)
29.06.2010 09:00 21.8 C 77 % 1017.4 hPa 0.0 l/m 1.0 km/h (0 Bft) W-SW 0.70 h 397 W/m 17.6 C 21.8 C 2.2 km/h (1 Bft)
29.06.2010 10:00 24.3 C 68 % 1017.0 hPa 0.0 l/m 1.6 km/h (1 Bft) W-SW 1.00 h 612 W/m 18.1 C 24.3 C 3.6 km/h (1 Bft)
29.06.2010 11:00 26.2 C 60 % 1016.7 hPa 0.0 l/m 2.4 km/h (1 Bft) W 1.00 h 729 W/m 17.7 C 26.2 C 4.2 km/h (1 Bft)
29.06.2010 12:00 27.8 C 53 % 1016.4 hPa 0.0 l/m 2.0 km/h (1 Bft) W 1.00 h 799 W/m 17.2 C 27.8 C 4.0 km/h (1 Bft)
29.06.2010 13:00 29.1 C 42 % 1016.3 hPa 0.0 l/m 4.3 km/h (1 Bft) SO 1.00 h 868 W/m 14.9 C 29.1 C 7.7 km/h (2 Bft)
29.06.2010 14:00 28.6 C 47 % 1016.2 hPa 0.0 l/m 7.6 km/h (2 Bft) N-NW 0.60 h 691 W/m 16.0 C 28.6 C 13.1 km/h (3 Bft)
29.06.2010 15:00 29.8 C 45 % 1015.9 hPa 0.0 l/m 5.8 km/h (2 Bft) N-NO 0.98 h 869 W/m 16.5 C 29.8 C 10.8 km/h (2 Bft)
29.06.2010 16:00 28.9 C 48 % 1015.9 hPa 0.0 l/m 4.2 km/h (1 Bft) N 1.00 h 685 W/m 16.6 C 28.9 C 8.5 km/h (2 Bft)
29.06.2010 17:00 28.6 C 47 % 1015.5 hPa 0.0 l/m 3.2 km/h (1 Bft) O-SO 1.00 h 503 W/m 16.0 C 28.6 C 6.4 km/h (2 Bft)
29.06.2010 18:00 28.2 C 45 % 1015.3 hPa 0.0 l/m 2.0 km/h (1 Bft) NO 0.57 h 275 W/m 15.2 C 28.2 C 4.8 km/h (1 Bft)
29.06.2010 19:00 26.7 C 53 % 1015.4 hPa 0.0 l/m 0.4 km/h (0 Bft) SO 0.30 h 110 W/m 16.3 C 26.7 C 1.5 km/h (1 Bft)
29.06.2010 20:00 25.3 C 59 % 1015.6 hPa 0.0 l/m 0.8 km/h (0 Bft) SO 0.22 h 57 W/m 16.8 C 25.3 C 1.5 km/h (1 Bft)
29.06.2010 21:00 23.4 C 66 % 1016.1 hPa 0.0 l/m 1.0 km/h (0 Bft) SO 0.05 h 11 W/m 16.5 C 23.4 C 2.2 km/h (1 Bft)
29.06.2010 22:00 21.5 C 73 % 1016.9 hPa 0.0 l/m 2.5 km/h (1 Bft) O-SO 0.00 h 0 W/m 16.5 C 21.5 C 3.7 km/h (1 Bft)
29.06.2010 23:00 20.5 C 76 % 1017.1 hPa 0.0 l/m 1.0 km/h (0 Bft) O-SO 0.00 h 0 W/m 16.1 C 20.5 C 1.9 km/h (1 Bft)
30.06.2010 00:00 19.4 C 80 % 1017.4 hPa 0.0 l/m 1.9 km/h (1 Bft) O-SO 0.00 h 0 W/m 15.9 C 19.4 C 2.9 km/h (1 Bft)
30.06.2010 01:00 19.1 C 81 % 1017.4 hPa 0.0 l/m 1.3 km/h (1 Bft) O-SO 0.00 h 0 W/m 15.8 C 19.1 C 2.7 km/h (1 Bft)
30.06.2010 02:00 18.0 C 86 % 1017.5 hPa 0.0 l/m 1.2 km/h (1 Bft) O-SO 0.00 h 0 W/m 15.6 C 18.0 C 1.8 km/h (1 Bft)
30.06.2010 03:00 17.7 C 86 % 1017.5 hPa 0.0 l/m 1.7 km/h (1 Bft) O-SO 0.00 h 0 W/m 15.4 C 17.7 C 3.1 km/h (1 Bft)
30.06.2010 04:00 16.9 C 89 % 1017.6 hPa 0.0 l/m 0.2 km/h (0 Bft) O-SO 0.00 h 0 W/m 15.1 C 16.9 C 0.7 km/h (0 Bft)
30.06.2010 05:00 16.6 C 90 % 1018.0 hPa 0.0 l/m 0.6 km/h (0 Bft) O-SO 0.02 h 10 W/m 14.9 C 16.6 C 1.7 km/h (1 Bft)
30.06.2010 06:00 16.5 C 90 % 1018.0 hPa 0.0 l/m 0.2 km/h (0 Bft) O-SO 0.00 h 42 W/m 15.0 C 16.5 C 0.3 km/h (0 Bft)
30.06.2010 07:00 18.1 C 88 % 1018.1 hPa 0.0 l/m 0.0 km/h (0 Bft) N 0.53 h 160 W/m 16.0 C 18.1 C 0.0 km/h (0 Bft)
30.06.2010 08:00 20.0 C 82 % 1018.2 hPa 0.0 l/m 0.4 km/h (0 Bft) O-SO 1.00 h 303 W/m 16.7 C 20.0 C 1.6 km/h (1 Bft)
30.06.2010 09:00 22.0 C 75 % 1018.3 hPa 0.0 l/m 2.0 km/h (1 Bft) N-NW 1.00 h 443 W/m 17.2 C 22.0 C 3.8 km/h (1 Bft)
30.06.2010 10:00 24.1 C 68 % 1018.2 hPa 0.0 l/m 2.0 km/h (1 Bft) N 1.00 h 596 W/m 17.9 C 24.1 C 3.8 km/h (1 Bft)
30.06.2010 11:00 26.1 C 63 % 1018.0 hPa 0.0 l/m 2.9 km/h (1 Bft) W-NW 0.88 h 687 W/m 18.4 C 26.1 C 4.9 km/h (1 Bft)
30.06.2010 12:00 27.6 C 56 % 1017.6 hPa 0.0 l/m 6.0 km/h (2 Bft) N-NW 1.00 h 860 W/m 18.0 C 27.6 C 9.2 km/h (2 Bft)
30.06.2010 13:00 28.2 C 53 % 1017.3 hPa 0.0 l/m 7.3 km/h (2 Bft) N-NW 0.73 h 814 W/m 17.6 C 28.2 C 11.4 km/h (2 Bft)
30.06.2010 14:00 28.7 C 50 % 1017.1 hPa 0.0 l/m 7.1 km/h (2 Bft) N-NW 0.92 h 786 W/m 17.1 C 28.7 C 11.1 km/h (2 Bft)
30.06.2010 15:00 28.0 C 53 % 1016.8 hPa 0.0 l/m 5.8 km/h (2 Bft) N 0.60 h 520 W/m 17.3 C 28.0 C 10.0 km/h (2 Bft)
30.06.2010 16:00 27.9 C 56 % 1016.4 hPa 0.0 l/m 4.5 km/h (1 Bft) N-NW 0.85 h 477 W/m 18.3 C 27.9 C 7.2 km/h (2 Bft)
30.06.2010 17:00 28.5 C 50 % 1016.1 hPa 0.0 l/m 2.2 km/h (1 Bft) O-SO 1.00 h 498 W/m 17.0 C 28.5 C 4.6 km/h (1 Bft)
30.06.2010 18:00 28.1 C 48 % 1016.0 hPa 0.0 l/m 3.0 km/h (1 Bft) O 1.00 h 350 W/m 16.1 C 28.1 C 5.5 km/h (1 Bft)
30.06.2010 19:00 27.4 C 49 % 1015.8 hPa 0.0 l/m 1.3 km/h (1 Bft) O 0.50 h 139 W/m 15.8 C 27.4 C 3.8 km/h (1 Bft)
30.06.2010 20:00 25.4 C 61 % 1015.9 hPa 0.0 l/m 0.5 km/h (0 Bft) NO 0.00 h 37 W/m 17.2 C 25.4 C 2.2 km/h (1 Bft)
30.06.2010 21:00 23.4 C 68 % 1016.4 hPa 0.0 l/m 1.8 km/h (1 Bft) O-SO 0.02 h 9 W/m 17.2 C 23.4 C 2.9 km/h (1 Bft)
30.06.2010 22:00 21.5 C 75 % 1017.0 hPa 0.0 l/m 1.7 km/h (1 Bft) O-SO 0.00 h 0 W/m 16.9 C 21.5 C 3.0 km/h (1 Bft)
30.06.2010 23:00 20.5 C 78 % 1016.8 hPa 0.0 l/m 1.6 km/h (1 Bft) O-SO 0.00 h 0 W/m 16.6 C 20.5 C 3.0 km/h (1 Bft)
01.07.2010 00:00 19.3 C 82 % 1017.0 hPa 0.0 l/m 1.2 km/h (1 Bft) O 0.00 h 0 W/m 16.2 C 19.3 C 2.5 km/h (1 Bft)
01.07.2010 01:00 18.6 C 85 % 1016.5 hPa 0.0 l/m 0.4 km/h (0 Bft) O 0.00 h 0 W/m 16.0 C 18.6 C 0.9 km/h (0 Bft)
01.07.2010 02:00 17.9 C 87 % 1016.5 hPa 0.0 l/m 0.6 km/h (0 Bft) O 0.00 h 0 W/m 15.8 C 17.9 C 1.7 km/h (1 Bft)
01.07.2010 03:00 17.3 C 89 % 1016.3 hPa 0.0 l/m 0.8 km/h (0 Bft) O 0.00 h 0 W/m 15.5 C 17.3 C 2.0 km/h (1 Bft)
01.07.2010 04:00 16.8 C 91 % 1016.2 hPa 0.0 l/m 0.3 km/h (0 Bft) O 0.00 h 0 W/m 15.2 C 16.8 C 0.9 km/h (0 Bft)
01.07.2010 05:00 16.4 C 92 % 1016.2 hPa 0.0 l/m 0.1 km/h (0 Bft) O 0.00 h 10 W/m 15.0 C 16.4 C 0.4 km/h (0 Bft)
01.07.2010 06:00 16.2 C 93 % 1016.2 hPa 0.0 l/m 0.1 km/h (0 Bft) O 0.00 h 38 W/m 15.0 C 16.2 C 0.4 km/h (0 Bft)
01.07.2010 07:00 17.5 C 91 % 1016.3 hPa 0.0 l/m 0.1 km/h (0 Bft) O 0.47 h 158 W/m 16.0 C 17.5 C 0.7 km/h (0 Bft)
01.07.2010 08:00 19.4 C 87 % 1016.4 hPa 0.0 l/m 0.3 km/h (0 Bft) O 0.90 h 291 W/m 17.1 C 19.4 C 0.8 km/h (0 Bft)
01.07.2010 09:00 21.2 C 81 % 1016.1 hPa 0.0 l/m 1.8 km/h (1 Bft) NW 1.00 h 444 W/m 17.8 C 21.2 C 3.6 km/h (1 Bft)
01.07.2010 10:00 24.0 C 73 % 1015.9 hPa 0.0 l/m 1.7 km/h (1 Bft) W-NW 1.00 h 605 W/m 18.8 C 24.0 C 3.4 km/h (1 Bft)
01.07.2010 11:00 26.3 C 64 % 1015.5 hPa 0.0 l/m 2.2 km/h (1 Bft) O-SO 1.00 h 734 W/m 18.9 C 26.3 C 4.5 km/h (1 Bft)
01.07.2010 12:00 27.8 C 56 % 1015.1 hPa 0.0 l/m 3.4 km/h (1 Bft) O-SO 1.00 h 817 W/m 18.0 C 27.8 C 6.4 km/h (2 Bft)
01.07.2010 13:00 28.9 C 47 % 1014.8 hPa 0.0 l/m 4.1 km/h (1 Bft) SO 1.00 h 858 W/m 16.5 C 28.9 C 7.5 km/h (2 Bft)
01.07.2010 14:00 29.7 C 46 % 1014.4 hPa 0.0 l/m 2.5 km/h (1 Bft) O-SO 1.00 h 752 W/m 16.8 C 29.7 C 5.0 km/h (1 Bft)
01.07.2010 15:00 30.2 C 44 % 1014.1 hPa 0.0 l/m 2.2 km/h (1 Bft) N-NO 1.00 h 705 W/m 16.3 C 30.2 C 4.6 km/h (1 Bft)
01.07.2010 16:00 29.9 C 44 % 1013.7 hPa 0.0 l/m 1.2 km/h (1 Bft) S-SW 0.97 h 544 W/m 16.1 C 29.9 C 2.9 km/h (1 Bft)
01.07.2010 17:00 29.7 C 41 % 1013.3 hPa 0.0 l/m 3.3 km/h (1 Bft) O-SO 0.95 h 456 W/m 15.1 C 29.7 C 5.8 km/h (2 Bft)
01.07.2010 18:00 29.5 C 42 % 1013.3 hPa 0.0 l/m 2.9 km/h (1 Bft) O-SO 0.62 h 342 W/m 15.3 C 29.5 C 5.5 km/h (1 Bft)
01.07.2010 20:00 25.7 C 63 % 1013.3 hPa 0.0 l/m 1.5 km/h (1 Bft) O-SO 0.00 h 32 W/m 18.0 C 25.7 C 3.1 km/h (1 Bft)
01.07.2010 21:00 23.7 C 70 % 1013.4 hPa 0.0 l/m 2.3 km/h (1 Bft) O-SO 0.00 h 11 W/m 17.9 C 23.7 C 3.3 km/h (1 Bft)
01.07.2010 22:00 22.0 C 74 % 1013.8 hPa 0.0 l/m 2.3 km/h (1 Bft) O-SO 0.00 h 0 W/m 17.2 C 22.0 C 3.5 km/h (1 Bft)
01.07.2010 23:00 20.7 C 78 % 1013.9 hPa 0.0 l/m 1.3 km/h (1 Bft) O-SO 0.00 h 0 W/m 16.6 C 20.7 C 2.3 km/h (1 Bft)
02.07.2010 00:00 19.8 C 80 % 1014.2 hPa 0.0 l/m 1.0 km/h (0 Bft) O 0.00 h 0 W/m 16.3 C 19.8 C 1.9 km/h (1 Bft)
02.07.2010 01:00 18.7 C 85 % 1014.3 hPa 0.0 l/m 1.4 km/h (1 Bft) O 0.00 h 0 W/m 16.1 C 18.7 C 2.6 km/h (1 Bft)
02.07.2010 02:00 18.1 C 87 % 1014.3 hPa 0.0 l/m 1.3 km/h (1 Bft) O 0.00 h 0 W/m 15.9 C 18.1 C 2.5 km/h (1 Bft)
02.07.2010 03:00 17.7 C 88 % 1014.4 hPa 0.0 l/m 1.5 km/h (1 Bft) O 0.00 h 0 W/m 15.6 C 17.7 C 2.9 km/h (1 Bft)
02.07.2010 04:00 17.0 C 90 % 1014.8 hPa 0.0 l/m 0.7 km/h (0 Bft) O 0.00 h 0 W/m 15.3 C 17.0 C 1.7 km/h (1 Bft)
02.07.2010 05:00 16.6 C 91 % 1015.0 hPa 0.0 l/m 0.5 km/h (0 Bft) O 0.00 h 7 W/m 15.1 C 16.6 C 1.5 km/h (1 Bft)
02.07.2010 06:00 16.7 C 91 % 1015.4 hPa 0.0 l/m 0.2 km/h (0 Bft) O 0.00 h 33 W/m 15.2 C 16.7 C 1.1 km/h (0 Bft)
02.07.2010 07:00 18.2 C 88 % 1015.5 hPa 0.0 l/m 0.0 km/h (0 Bft) N 0.60 h 160 W/m 16.2 C 18.2 C 0.0 km/h (0 Bft)
02.07.2010 08:00 20.5 C 83 % 1015.6 hPa 0.0 l/m 0.5 km/h (0 Bft) NW 0.98 h 311 W/m 17.5 C 20.5 C 1.6 km/h (1 Bft)
02.07.2010 09:00 22.8 C 76 % 1015.5 hPa 0.0 l/m 0.7 km/h (0 Bft) W-SW 0.95 h 455 W/m 18.4 C 22.8 C 2.2 km/h (1 Bft)
02.07.2010 10:00 24.5 C 72 % 1015.3 hPa 0.0 l/m 1.0 km/h (0 Bft) W-NW 0.80 h 475 W/m 19.0 C 24.5 C 2.6 km/h (1 Bft)
02.07.2010 11:00 27.0 C 64 % 1015.1 hPa 0.0 l/m 2.3 km/h (1 Bft) N-NW 0.98 h 741 W/m 19.5 C 27.0 C 4.2 km/h (1 Bft)
02.07.2010 12:00 28.7 C 59 % 1014.7 hPa 0.0 l/m 1.4 km/h (1 Bft) W-NW 1.00 h 800 W/m 19.8 C 28.7 C 3.2 km/h (1 Bft)
02.07.2010 13:00 30.3 C 52 % 1014.3 hPa 0.0 l/m 2.0 km/h (1 Bft) W 1.00 h 817 W/m 19.1 C 30.3 C 4.0 km/h (1 Bft)
02.07.2010 14:00 30.6 C 48 % 1014.0 hPa 0.0 l/m 2.6 km/h (1 Bft) O-SO 0.95 h 736 W/m 18.4 C 30.6 C 4.8 km/h (1 Bft)
02.07.2010 15:00 31.6 C 43 % 1013.6 hPa 0.0 l/m 2.0 km/h (1 Bft) O-SO 1.00 h 785 W/m 17.5 C 31.6 C 4.1 km/h (1 Bft)
02.07.2010 16:00 32.2 C 35 % 1013.2 hPa 0.0 l/m 2.2 km/h (1 Bft) O-SO 0.88 h 617 W/m 14.6 C 32.2 C 4.2 km/h (1 Bft)
02.07.2010 17:00 32.3 C 31 % 1012.9 hPa 0.0 l/m 1.5 km/h (1 Bft) SO 1.00 h 535 W/m 12.8 C 32.3 C 3.4 km/h (1 Bft)
02.07.2010 18:00 31.1 C 38 % 1012.7 hPa 0.0 l/m 4.1 km/h (1 Bft) O-SO 0.45 h 243 W/m 15.0 C 31.1 C 6.0 km/h (2 Bft)
02.07.2010 19:00 29.6 C 48 % 1012.7 hPa 0.0 l/m 4.6 km/h (1 Bft) O-SO 0.52 h 163 W/m 17.5 C 29.6 C 6.0 km/h (2 Bft)
02.07.2010 20:00 27.0 C 59 % 1013.1 hPa 0.0 l/m 1.8 km/h (1 Bft) O-SO 0.00 h 34 W/m 18.2 C 27.0 C 2.9 km/h (1 Bft)
02.07.2010 21:00 24.7 C 65 % 1013.5 hPa 0.0 l/m 0.2 km/h (0 Bft) O-SO 0.03 h 12 W/m 17.6 C 24.7 C 0.7 km/h (0 Bft)
02.07.2010 22:00 23.1 C 70 % 1014.2 hPa 0.0 l/m 0.8 km/h (0 Bft) O-SO 0.00 h 0 W/m 17.4 C 23.1 C 1.5 km/h (1 Bft)
02.07.2010 23:00 22.0 C 74 % 1014.5 hPa 0.0 l/m 0.8 km/h (0 Bft) O-SO 0.00 h 0 W/m 17.2 C 22.0 C 1.7 km/h (1 Bft)
03.07.2010 00:00 21.1 C 78 % 1014.6 hPa 0.0 l/m 0.5 km/h (0 Bft) O-SO 0.00 h 0 W/m 17.1 C 21.1 C 1.2 km/h (1 Bft)
03.07.2010 01:00 20.3 C 82 % 1014.6 hPa 0.0 l/m 1.7 km/h (1 Bft) O-SO 0.00 h 0 W/m 17.1 C 20.3 C 3.0 km/h (1 Bft)
03.07.2010 02:00 19.5 C 85 % 1014.7 hPa 0.0 l/m 0.5 km/h (0 Bft) O-SO 0.00 h 0 W/m 17.0 C 19.5 C 1.1 km/h (0 Bft)
03.07.2010 03:00 18.6 C 88 % 1014.8 hPa 0.0 l/m 1.2 km/h (1 Bft) O-SO 0.00 h 0 W/m 16.6 C 18.6 C 1.8 km/h (1 Bft)
03.07.2010 04:00 18.2 C 89 % 1014.9 hPa 0.0 l/m 1.2 km/h (1 Bft) O-SO 0.00 h 0 W/m 16.3 C 18.2 C 2.4 km/h (1 Bft)
03.07.2010 05:00 17.7 C 91 % 1015.1 hPa 0.0 l/m 1.1 km/h (1 Bft) O-SO 0.02 h 10 W/m 16.1 C 17.7 C 2.0 km/h (1 Bft)
03.07.2010 06:00 17.8 C 91 % 1015.4 hPa 0.0 l/m 0.1 km/h (0 Bft) O-SO 0.00 h 36 W/m 16.4 C 17.8 C 0.5 km/h (0 Bft)
03.07.2010 07:00 19.2 C 90 % 1015.8 hPa 0.0 l/m 0.0 km/h (0 Bft) N 0.58 h 159 W/m 17.5 C 19.2 C 0.1 km/h (0 Bft)
03.07.2010 08:00 21.2 C 85 % 1015.8 hPa 0.0 l/m 0.1 km/h (0 Bft) O-SO 1.00 h 306 W/m 18.7 C 21.2 C 1.0 km/h (0 Bft)
03.07.2010 09:00 24.0 C 77 % 1015.8 hPa 0.0 l/m 0.7 km/h (0 Bft) O-SO 1.00 h 461 W/m 19.7 C 24.0 C 2.1 km/h (1 Bft)
03.07.2010 10:00 26.2 C 67 % 1015.7 hPa 0.0 l/m 2.7 km/h (1 Bft) S-SO 1.00 h 603 W/m 19.5 C 26.2 C 5.5 km/h (1 Bft)
03.07.2010 11:00 27.8 C 63 % 1015.7 hPa 0.0 l/m 1.7 km/h (1 Bft) O-SO 1.00 h 718 W/m 20.1 C 27.8 C 3.6 km/h (1 Bft)
03.07.2010 12:00 29.8 C 58 % 1015.2 hPa 0.0 l/m 1.5 km/h (1 Bft) NW 1.00 h 802 W/m 20.7 C 29.8 C 3.6 km/h (1 Bft)
03.07.2010 13:00 31.6 C 52 % 1014.9 hPa 0.0 l/m 3.0 km/h (1 Bft) N-NW 1.00 h 832 W/m 20.3 C 31.6 C 5.5 km/h (1 Bft)
03.07.2010 14:00 32.6 C 44 % 1014.2 hPa 0.0 l/m 3.3 km/h (1 Bft) N-NW 1.00 h 814 W/m 18.6 C 32.6 C 5.9 km/h (2 Bft)
03.07.2010 15:00 33.5 C 40 % 1013.9 hPa 0.0 l/m 3.0 km/h (1 Bft) N-NW 1.00 h 757 W/m 18.1 C 33.5 C 5.2 km/h (1 Bft)
03.07.2010 16:00 33.4 C 42 % 1013.6 hPa 0.0 l/m 5.6 km/h (1 Bft) W 1.00 h 647 W/m 18.5 C 33.4 C 9.1 km/h (2 Bft)
03.07.2010 17:00 29.4 C 51 % 1014.5 hPa 0.0 l/m 8.2 km/h (2 Bft) W 0.18 h 203 W/m 18.0 C 29.4 C 14.4 km/h (3 Bft)
03.07.2010 18:00 26.2 C 63 % 1015.2 hPa 0.0 l/m 3.8 km/h (1 Bft) S-SO 0.10 h 180 W/m 18.7 C 26.2 C 7.4 km/h (2 Bft)
03.07.2010 19:00 24.9 C 66 % 1016.2 hPa 0.0 l/m 4.2 km/h (1 Bft) S-SO 0.00 h 87 W/m 18.2 C 24.9 C 8.0 km/h (2 Bft)
03.07.2010 20:00 23.8 C 71 % 1016.6 hPa 0.0 l/m 3.2 km/h (1 Bft) S-SO 0.00 h 22 W/m 18.1 C 23.8 C 6.3 km/h (2 Bft)
03.07.2010 21:00 23.1 C 72 % 1016.8 hPa 0.0 l/m 0.2 km/h (0 Bft) SO 0.00 h 7 W/m 17.9 C 23.1 C 1.5 km/h (1 Bft)
03.07.2010 22:00 22.7 C 73 % 1017.2 hPa 0.0 l/m 0.7 km/h (0 Bft) S-SO 0.00 h 0 W/m 17.6 C 22.7 C 1.9 km/h (1 Bft)
03.07.2010 23:00 21.9 C 77 % 1017.2 hPa 0.0 l/m 3.0 km/h (1 Bft) O-SO 0.00 h 0 W/m 17.6 C 21.9 C 4.5 km/h (1 Bft)
04.07.2010 00:00 21.2 C 78 % 1017.4 hPa 0.0 l/m 1.1 km/h (1 Bft) SO 0.00 h 0 W/m 17.2 C 21.2 C 2.2 km/h (1 Bft)
04.07.2010 01:00 20.5 C 81 % 1017.4 hPa 0.0 l/m 0.9 km/h (0 Bft) O-SO 0.00 h 0 W/m 17.1 C 20.5 C 1.7 km/h (1 Bft)
04.07.2010 02:00 20.0 C 84 % 1017.7 hPa 0.0 l/m 3.5 km/h (1 Bft) O-SO 0.00 h 0 W/m 17.3 C 20.0 C 5.0 km/h (1 Bft)
04.07.2010 03:00 20.5 C 83 % 1017.7 hPa 0.4 l/m 0.9 km/h (0 Bft) O-SO 0.00 h 0 W/m 17.4 C 20.5 C 2.1 km/h (1 Bft)
04.07.2010 04:00 19.0 C 94 % 1017.8 hPa 14.6 l/m 3.9 km/h (1 Bft) SO 0.00 h 0 W/m 18.0 C 19.0 C 5.8 km/h (1 Bft)
04.07.2010 05:00 18.8 C 96 % 1018.7 hPa 0.6 l/m 0.5 km/h (0 Bft) S 0.00 h 6 W/m 18.2 C 18.8 C 1.4 km/h (1 Bft)
04.07.2010 06:00 18.8 C 97 % 1019.1 hPa 0.0 l/m 0.7 km/h (0 Bft) N-NW 0.00 h 23 W/m 18.3 C 18.8 C 1.8 km/h (1 Bft)
04.07.2010 07:00 19.2 C 96 % 1019.5 hPa 1.0 l/m 0.4 km/h (0 Bft) SO 0.00 h 28 W/m 18.5 C 19.2 C 1.5 km/h (1 Bft)
04.07.2010 08:00 19.8 C 96 % 1019.7 hPa 0.0 l/m 0.5 km/h (0 Bft) O-SO 0.00 h 109 W/m 19.1 C 19.8 C 1.3 km/h (1 Bft)
04.07.2010 09:00 21.4 C 93 % 1019.5 hPa 0.0 l/m 0.0 km/h (0 Bft) N 0.65 h 373 W/m 20.3 C 21.4 C 0.6 km/h (0 Bft)
04.07.2010 10:00 22.7 C 88 % 1019.2 hPa 0.0 l/m 0.4 km/h (0 Bft) N-NW 0.23 h 345 W/m 20.7 C 22.7 C 1.9 km/h (1 Bft)
04.07.2010 11:00 24.8 C 82 % 1018.9 hPa 0.0 l/m 0.5 km/h (0 Bft) W 0.75 h 625 W/m 21.4 C 24.8 C 2.0 km/h (1 Bft)
04.07.2010 12:00 24.9 C 79 % 1018.8 hPa 0.0 l/m 3.6 km/h (1 Bft) N-NW 0.30 h 458 W/m 21.0 C 24.9 C 5.9 km/h (2 Bft)
04.07.2010 13:00 25.7 C 73 % 1018.6 hPa 0.0 l/m 3.3 km/h (1 Bft) N 0.33 h 494 W/m 20.3 C 25.7 C 6.3 km/h (2 Bft)
04.07.2010 14:00 22.8 C 81 % 1018.7 hPa 7.8 l/m 4.1 km/h (1 Bft) O-SO 0.00 h 113 W/m 19.3 C 22.8 C 7.9 km/h (2 Bft)
04.07.2010 15:00 22.2 C 94 % 1018.8 hPa 0.2 l/m 2.5 km/h (1 Bft) O-SO 0.18 h 350 W/m 21.1 C 22.2 C 4.1 km/h (1 Bft)
04.07.2010 16:00 22.8 C 92 % 1018.5 hPa 0.0 l/m 0.8 km/h (0 Bft) W-NW 0.00 h 167 W/m 21.5 C 22.8 C 1.9 km/h (1 Bft)
04.07.2010 17:00 22.7 C 93 % 1018.3 hPa 0.2 l/m 0.7 km/h (0 Bft) W-NW 0.05 h 220 W/m 21.5 C 22.7 C 1.8 km/h (1 Bft)
04.07.2010 18:00 23.3 C 90 % 1017.9 hPa 0.0 l/m 0.3 km/h (0 Bft) W-NW 0.25 h 215 W/m 21.6 C 23.3 C 1.1 km/h (0 Bft)
04.07.2010 19:00 22.9 C 90 % 1017.9 hPa 0.0 l/m 1.2 km/h (1 Bft) N-NW 0.02 h 88 W/m 21.2 C 22.9 C 2.4 km/h (1 Bft)
04.07.2010 20:00 22.3 C 93 % 1017.9 hPa 0.0 l/m 0.7 km/h (0 Bft) N-NW 0.50 h 71 W/m 21.2 C 22.3 C 2.2 km/h (1 Bft)
04.07.2010 21:00 21.7 C 91 % 1018.0 hPa 0.0 l/m 0.2 km/h (0 Bft) N-NO 0.05 h 12 W/m 20.2 C 21.7 C 0.5 km/h (0 Bft)
04.07.2010 22:00 20.8 C 95 % 1018.5 hPa 0.0 l/m 0.0 km/h (0 Bft) N-NO 0.00 h 0 W/m 20.0 C 20.8 C 0.2 km/h (0 Bft)
04.07.2010 23:00 20.6 C 97 % 1018.5 hPa 0.0 l/m 0.0 km/h (0 Bft) N-NO 0.00 h 0 W/m 20.0 C 20.6 C 0.1 km/h (0 Bft)
Min-Datum _ 28.06.10 02.07.10 02.07.10 - 28.06.10 - - - 02.07.10 28.06.10 28.06.10
_ Min-Zeit 05:59 17:06 19:15 - 00:50 - - - 17:06 06:01 00:50
Minimum _ 14.7 C 26 % 1012.6 hPa - 0.0 km/h (0 Bft) - - - 10.3 C 14.7 C 0.0 km/h (0 Bft)
Max-Datum _ 03.07.10 04.07.10 04.07.10 04.07.10 04.07.10 - 03.07.10 30.06.10 04.07.10 03.07.10 29.06.10
_ Max-Zeit 15:50 09:09 08:15 04:27 14:29 - 15:18 13:08 11:25 15:50 14:17
Maximum _ 34.3 C 98 % 1019.9 hPa 14.6 l/m 16.1 km/h
O-SO (3 Bft)
- 0.03 h 1076 W/m 22.8 C 34.3 C 24.3 km/h
N-NW (4 Bft)
Durchschnitt _ 23.1 C 72 % 1016.2 hPa #24.8 l/m 1.8 km/h (1 Bft) O-SO #68:16 h 381 W/m 17.1 C 23.1 C 3.4 km/h (1 Bft)
© Kaiko 2010